createdAt,value
2019-03-29T00:02:45.231Z,13.20
2019-03-29T00:05:33.872Z,12.60
2019-03-29T00:08:22.308Z,12.00
2019-03-29T00:11:10.567Z,11.63
2019-03-29T00:13:59.671Z,13.60
2019-03-29T00:16:48.280Z,12.47
2019-03-29T00:19:37.094Z,12.57
2019-03-29T00:22:26.283Z,14.03
2019-03-29T00:25:15.208Z,12.17
2019-03-29T00:28:03.815Z,12.70
2019-03-29T00:30:52.992Z,11.10
2019-03-29T00:33:41.294Z,11.47
2019-03-29T00:36:29.959Z,12.07
2019-03-29T00:39:18.914Z,13.00
2019-03-29T00:42:08.212Z,12.43
2019-03-29T00:44:56.885Z,13.40
2019-03-29T00:47:45.660Z,13.97
2019-03-29T00:50:34.788Z,13.37
2019-03-29T00:53:23.727Z,13.10
2019-03-29T00:56:12.985Z,13.03
2019-03-29T00:59:01.815Z,13.60
2019-03-29T01:01:50.368Z,12.50
2019-03-29T01:04:38.822Z,14.13
2019-03-29T01:07:27.891Z,12.43
2019-03-29T01:10:17.284Z,14.30
2019-03-29T01:13:05.905Z,15.20
2019-03-29T01:15:54.005Z,15.23
2019-03-29T01:18:42.447Z,14.53
2019-03-29T01:21:30.977Z,14.63
2019-03-29T01:24:19.856Z,16.07
2019-03-29T01:27:08.020Z,16.97
2019-03-29T01:29:56.914Z,15.50
2019-03-29T01:32:45.759Z,15.73
2019-03-29T01:35:35.958Z,17.90
2019-03-29T01:38:25.644Z,16.73
2019-03-29T01:41:14.888Z,16.13
2019-03-29T01:44:03.582Z,16.00
2019-03-29T01:46:51.867Z,16.57
2019-03-29T01:49:40.216Z,16.63
2019-03-29T01:52:31.492Z,17.90
2019-03-29T01:55:20.388Z,17.07
2019-03-29T01:58:08.897Z,16.67
2019-03-29T02:00:57.636Z,16.60
2019-03-29T02:03:46.941Z,17.70
2019-03-29T02:06:35.902Z,16.57
2019-03-29T02:09:25.044Z,17.90
2019-03-29T02:12:13.931Z,17.87
2019-03-29T02:15:03.289Z,17.73
2019-03-29T02:17:52.120Z,18.40
2019-03-29T02:20:40.701Z,18.33
2019-03-29T02:23:28.872Z,18.67
2019-03-29T02:26:17.772Z,19.20
2019-03-29T02:29:06.882Z,19.90
2019-03-29T02:31:56.468Z,19.13
2019-03-29T02:34:45.541Z,19.67
2019-03-29T02:37:33.869Z,20.90
2019-03-29T02:40:22.828Z,18.33
2019-03-29T02:43:11.881Z,18.47
2019-03-29T02:46:00.904Z,19.40
2019-03-29T02:48:49.253Z,20.40
2019-03-29T02:51:38.421Z,19.03
2019-03-29T02:54:27.107Z,19.30
2019-03-29T02:57:15.197Z,20.63
2019-03-29T03:00:04.638Z,19.63
2019-03-29T03:02:52.999Z,19.80
2019-03-29T03:05:41.963Z,20.57
2019-03-29T03:08:32.870Z,20.13
2019-03-29T03:11:20.756Z,20.67
2019-03-29T03:14:09.030Z,21.20
2019-03-29T03:16:58.211Z,19.23
2019-03-29T03:19:46.347Z,19.10
2019-03-29T03:22:34.980Z,19.60
2019-03-29T03:25:23.072Z,22.10
2019-03-29T03:28:12.294Z,20.90
2019-03-29T03:31:00.938Z,21.53
2019-03-29T03:33:49.496Z,22.70
2019-03-29T03:36:38.170Z,21.70
2019-03-29T03:39:32.070Z,21.80
2019-03-29T03:42:17.214Z,24.00
2019-03-29T03:45:06.397Z,22.60
2019-03-29T03:47:55.386Z,24.33
2019-03-29T03:50:44.537Z,22.93
2019-03-29T03:53:32.968Z,22.83
2019-03-29T03:56:22.584Z,23.83
2019-03-29T03:59:11.036Z,23.63
2019-03-29T04:02:00.124Z,23.63
2019-03-29T04:04:48.680Z,23.10
2019-03-29T04:07:36.855Z,22.80
2019-03-29T04:10:25.004Z,23.50
2019-03-29T04:13:13.309Z,23.30
2019-03-29T04:16:02.380Z,25.90
2019-03-29T04:18:51.258Z,23.50
2019-03-29T04:21:39.867Z,24.70
2019-03-29T04:24:28.633Z,23.67
2019-03-29T04:27:17.434Z,25.10
2019-03-29T04:30:06.913Z,24.87
2019-03-29T04:32:56.084Z,26.47
2019-03-29T04:35:45.168Z,26.40
2019-03-29T04:38:33.239Z,24.97
2019-03-29T04:41:22.471Z,24.83
2019-03-29T04:44:11.481Z,26.20
2019-03-29T04:47:00.225Z,25.37
2019-03-29T04:49:49.163Z,24.40
2019-03-29T04:52:38.225Z,24.70
2019-03-29T04:55:27.284Z,23.90
2019-03-29T04:58:15.838Z,23.93
2019-03-29T05:01:04.683Z,23.20
2019-03-29T05:03:52.848Z,24.63
2019-03-29T05:06:41.035Z,26.57
2019-03-29T05:09:30.492Z,27.20
2019-03-29T05:12:19.337Z,25.70
2019-03-29T05:15:08.051Z,25.10
2019-03-29T05:17:56.286Z,24.87
2019-03-29T05:20:44.866Z,26.20
2019-03-29T05:23:33.409Z,26.83
2019-03-29T05:26:25.139Z,28.03
2019-03-29T05:29:11.831Z,27.10
2019-03-29T05:32:00.134Z,24.60
2019-03-29T05:34:48.932Z,24.00
2019-03-29T05:37:38.059Z,26.40
2019-03-29T05:40:34.684Z,24.73
2019-03-29T05:43:17.954Z,25.33
2019-03-29T05:46:06.646Z,26.20
2019-03-29T05:48:55.633Z,25.10
2019-03-29T05:51:44.232Z,25.43
2019-03-29T05:54:33.232Z,26.20
2019-03-29T05:57:22.247Z,25.40
2019-03-29T06:00:13.250Z,26.33
2019-03-29T06:03:02.345Z,26.17
2019-03-29T06:05:51.341Z,27.43
2019-03-29T06:08:39.593Z,25.37
2019-03-29T06:11:28.364Z,27.67
2019-03-29T06:14:16.453Z,26.40
2019-03-29T06:17:05.132Z,26.30
2019-03-29T06:19:53.326Z,28.43
2019-03-29T06:22:42.354Z,26.77
2019-03-29T06:25:31.408Z,28.33
2019-03-29T06:28:19.776Z,27.23
2019-03-29T06:31:08.816Z,28.90
2019-03-29T06:33:58.354Z,26.10
2019-03-29T06:36:47.529Z,26.93
2019-03-29T06:39:36.342Z,27.10
2019-03-29T06:42:25.078Z,25.53
2019-03-29T06:45:13.730Z,25.10
2019-03-29T06:48:01.969Z,26.50
2019-03-29T06:50:50.347Z,26.50
2019-03-29T06:53:38.985Z,23.77
2019-03-29T06:56:27.032Z,23.80
2019-03-29T06:59:15.695Z,24.27
2019-03-29T07:02:04.988Z,23.23
2019-03-29T07:04:53.489Z,24.50
2019-03-29T07:07:44.582Z,26.70
2019-03-29T07:10:32.047Z,22.70
2019-03-29T07:13:20.212Z,22.07
2019-03-29T07:16:09.439Z,20.10
2019-03-29T07:18:57.963Z,20.90
2019-03-29T07:21:46.508Z,20.87
2019-03-29T07:24:34.511Z,20.30
2019-03-29T07:27:23.731Z,19.40
2019-03-29T07:30:13.412Z,18.93
2019-03-29T07:33:01.905Z,17.90
2019-03-29T07:35:50.732Z,19.63
2019-03-29T07:38:39.209Z,17.83
2019-03-29T07:41:32.243Z,17.17
2019-03-29T07:44:17.903Z,18.90
2019-03-29T07:47:06.827Z,18.90
2019-03-29T07:49:55.990Z,18.37
2019-03-29T07:52:44.513Z,18.70
2019-03-29T07:55:33.107Z,18.70
2019-03-29T07:58:21.619Z,17.90
2019-03-29T08:01:10.217Z,17.83
2019-03-29T08:03:59.026Z,16.63
2019-03-29T08:06:48.035Z,18.30
2019-03-29T08:09:36.527Z,18.07
2019-03-29T08:12:25.707Z,20.37
2019-03-29T08:15:14.901Z,17.00
2019-03-29T08:18:03.417Z,24.57
2019-03-29T08:20:52.675Z,18.73
2019-03-29T08:23:41.448Z,15.10
2019-03-29T08:26:40.696Z,15.47
2019-03-29T08:29:31.328Z,13.87
2019-03-29T08:32:19.185Z,15.07
2019-03-29T08:35:07.837Z,14.80
2019-03-29T08:37:57.067Z,15.13
2019-03-29T08:40:46.184Z,15.20
2019-03-29T08:43:34.932Z,14.73
2019-03-29T08:46:23.274Z,14.73
2019-03-29T08:49:12.342Z,15.13
2019-03-29T08:52:00.893Z,13.70
2019-03-29T08:54:51.175Z,14.40
2019-03-29T08:57:40.252Z,14.20
2019-03-29T09:00:33.603Z,13.43
2019-03-29T09:03:22.052Z,16.80
2019-03-29T09:06:10.332Z,15.47
2019-03-29T09:08:59.823Z,12.13
2019-03-29T09:11:48.708Z,12.33
2019-03-29T09:14:37.560Z,12.30
2019-03-29T09:17:26.158Z,11.70
2019-03-29T09:20:14.585Z,12.30
2019-03-29T09:23:03.204Z,11.33
2019-03-29T09:25:52.081Z,11.00
2019-03-29T09:28:41.249Z,11.57
2019-03-29T09:31:29.461Z,11.40
2019-03-29T09:34:17.976Z,11.33
2019-03-29T09:37:06.430Z,10.83
2019-03-29T09:39:55.095Z,10.70
2019-03-29T09:42:44.447Z,9.60
2019-03-29T09:45:32.904Z,10.57
2019-03-29T09:48:22.187Z,11.10
2019-03-29T09:51:10.497Z,11.03
2019-03-29T09:53:59.047Z,10.77
2019-03-29T09:56:48.484Z,10.27
2019-03-29T09:59:37.111Z,10.40
2019-03-29T10:02:26.103Z,10.60
2019-03-29T10:05:14.879Z,10.73
2019-03-29T10:08:04.154Z,11.20
2019-03-29T10:10:52.414Z,10.83
2019-03-29T10:13:41.175Z,11.47
2019-03-29T10:16:29.238Z,10.10
2019-03-29T10:19:17.654Z,9.67
2019-03-29T10:22:06.689Z,9.27
2019-03-29T10:24:55.327Z,9.90
2019-03-29T10:27:43.839Z,9.33
2019-03-29T10:30:40.874Z,10.20
2019-03-29T10:33:29.267Z,9.10
2019-03-29T10:36:17.847Z,10.73
2019-03-29T10:39:11.743Z,9.38
2019-03-29T10:41:59.860Z,9.35
2019-03-29T10:44:49.579Z,9.33
2019-03-29T10:47:43.647Z,8.53
2019-03-29T10:50:28.876Z,10.78
2019-03-29T10:53:17.197Z,12.07
2019-03-29T10:56:06.044Z,13.08
2019-03-29T10:58:54.950Z,12.70
2019-03-29T11:01:43.791Z,11.83
2019-03-29T11:04:32.631Z,13.08
2019-03-29T11:07:21.624Z,12.15
2019-03-29T11:10:15.045Z,10.50
2019-03-29T11:13:12.367Z,11.57
2019-03-29T11:15:53.879Z,11.08
2019-03-29T11:18:45.680Z,12.88
2019-03-29T11:21:32.790Z,9.90
2019-03-29T11:24:21.623Z,11.28
2019-03-29T11:27:10.196Z,10.43
2019-03-29T11:29:58.903Z,11.00
2019-03-29T11:32:47.984Z,10.20
2019-03-29T11:35:37.071Z,12.15
2019-03-29T11:38:25.183Z,9.68
2019-03-29T11:41:14.333Z,9.73
2019-03-29T11:44:03.395Z,10.90
2019-03-29T11:46:52.270Z,11.20
2019-03-29T11:49:40.839Z,10.70
2019-03-29T11:52:29.901Z,11.05
2019-03-29T11:55:18.560Z,11.08
2019-03-29T11:58:07.715Z,9.50
2019-03-29T12:00:56.592Z,9.75
2019-03-29T12:03:45.430Z,10.20
2019-03-29T12:06:34.872Z,11.03
2019-03-29T12:09:23.008Z,9.18
2019-03-29T12:12:11.266Z,9.45
2019-03-29T12:14:59.531Z,9.75
2019-03-29T12:17:48.312Z,9.18
2019-03-29T12:20:37.608Z,9.60
2019-03-29T12:23:26.694Z,8.85
2019-03-29T12:26:15.155Z,8.80
2019-03-29T12:29:04.147Z,8.35
2019-03-29T12:31:53.044Z,9.55
2019-03-29T12:34:41.519Z,9.48
2019-03-29T12:37:30.108Z,8.40
2019-03-29T12:40:18.297Z,8.13
2019-03-29T12:43:06.861Z,7.87
2019-03-29T12:45:55.365Z,8.70
2019-03-29T12:48:43.928Z,7.92
2019-03-29T12:51:32.619Z,7.90
2019-03-29T12:54:21.033Z,7.12
2019-03-29T12:57:09.793Z,7.70
2019-03-29T12:59:58.416Z,7.87
2019-03-29T13:02:47.076Z,7.97
2019-03-29T13:05:35.295Z,8.30
2019-03-29T13:08:23.472Z,7.50
2019-03-29T13:11:12.286Z,8.00
2019-03-29T13:14:10.011Z,7.92
2019-03-29T13:16:50.718Z,7.53
2019-03-29T13:19:39.474Z,8.48
2019-03-29T13:22:28.066Z,8.85
2019-03-29T13:25:16.809Z,9.20
2019-03-29T13:28:05.700Z,7.83
2019-03-29T13:30:54.290Z,8.10
2019-03-29T13:33:42.737Z,7.95
2019-03-29T13:36:31.851Z,7.60
2019-03-29T13:39:21.096Z,6.42
2019-03-29T13:42:10.210Z,7.83
2019-03-29T13:44:59.012Z,8.18
2019-03-29T13:47:47.624Z,8.35
2019-03-29T13:50:35.691Z,8.53
2019-03-29T13:53:24.704Z,7.97
2019-03-29T13:56:13.294Z,7.75
2019-03-29T13:59:02.514Z,8.03
2019-03-29T14:01:50.814Z,9.65
2019-03-29T14:04:39.298Z,9.13
2019-03-29T14:07:27.906Z,9.23
2019-03-29T14:10:16.694Z,7.78
2019-03-29T14:13:05.947Z,7.70
2019-03-29T14:15:54.897Z,7.35
2019-03-29T14:18:43.997Z,7.53
2019-03-29T14:21:33.063Z,7.00
2019-03-29T14:24:21.786Z,7.30
2019-03-29T14:27:10.888Z,8.53
2019-03-29T14:30:04.742Z,9.85
2019-03-29T14:32:53.012Z,10.58
2019-03-29T14:35:41.636Z,8.35
2019-03-29T14:38:30.116Z,6.90
2019-03-29T14:41:18.884Z,7.90
2019-03-29T14:44:07.631Z,8.13
2019-03-29T14:46:56.096Z,7.75
2019-03-29T14:49:45.084Z,8.70
2019-03-29T14:52:33.920Z,8.73
2019-03-29T14:55:22.907Z,8.38
2019-03-29T14:58:11.932Z,7.58
2019-03-29T15:01:00.566Z,7.92
2019-03-29T15:03:49.036Z,7.53
2019-03-29T15:06:37.464Z,8.45
2019-03-29T15:09:26.354Z,8.73
2019-03-29T15:12:15.341Z,8.10
2019-03-29T15:15:06.470Z,7.25
2019-03-29T15:17:55.009Z,8.50
2019-03-29T15:20:53.436Z,7.90
2019-03-29T15:23:34.121Z,7.30
2019-03-29T15:26:23.424Z,7.03
2019-03-29T15:29:12.542Z,7.70
2019-03-29T15:32:01.502Z,9.08
2019-03-29T15:34:50.189Z,8.28
2019-03-29T15:37:38.846Z,7.60
2019-03-29T15:40:27.327Z,6.90
2019-03-29T15:43:16.122Z,8.00
2019-03-29T15:46:05.083Z,7.78
2019-03-29T15:48:54.052Z,7.42
2019-03-29T15:51:42.656Z,6.72
2019-03-29T15:54:30.816Z,7.05
2019-03-29T15:57:19.307Z,8.55
2019-03-29T16:00:08.243Z,7.33
2019-03-29T16:02:56.929Z,8.15
2019-03-29T16:05:48.357Z,8.05
2019-03-29T16:08:35.298Z,7.22
2019-03-29T16:11:23.476Z,6.53
2019-03-29T16:14:11.572Z,7.87
2019-03-29T16:17:00.034Z,7.90
2019-03-29T16:19:48.201Z,8.60
2019-03-29T16:22:36.355Z,8.97
2019-03-29T16:25:24.644Z,9.10
2019-03-29T16:28:12.773Z,8.70
2019-03-29T16:31:01.480Z,8.30
2019-03-29T16:33:50.228Z,8.63
2019-03-29T16:36:38.344Z,7.80
2019-03-29T16:39:27.673Z,8.40
2019-03-29T16:42:16.832Z,8.67
2019-03-29T16:45:05.766Z,8.30
2019-03-29T16:47:54.465Z,8.33
2019-03-29T16:50:42.887Z,8.67
2019-03-29T16:53:31.986Z,9.17
2019-03-29T16:56:20.630Z,8.50
2019-03-29T16:59:09.788Z,8.70
2019-03-29T17:01:58.266Z,9.13
2019-03-29T17:04:46.456Z,9.70
2019-03-29T17:07:34.972Z,8.97
2019-03-29T17:10:23.651Z,9.87
2019-03-29T17:13:12.487Z,10.97
2019-03-29T17:16:02.342Z,9.63
2019-03-29T17:18:51.293Z,9.10
2019-03-29T17:21:39.601Z,9.97
2019-03-29T17:24:28.102Z,9.73
2019-03-29T17:27:16.211Z,10.23
2019-03-29T17:30:07.666Z,9.53
2019-03-29T17:32:56.012Z,11.17
2019-03-29T17:35:44.696Z,10.43
2019-03-29T17:38:33.102Z,9.27
2019-03-29T17:41:22.437Z,9.87
2019-03-29T17:44:10.834Z,10.90
2019-03-29T17:47:00.132Z,11.77
2019-03-29T17:49:48.950Z,10.20
2019-03-29T17:52:37.529Z,11.33
2019-03-29T17:55:26.223Z,10.03
2019-03-29T17:58:14.689Z,9.40
2019-03-29T18:01:03.199Z,11.90
2019-03-29T18:03:52.512Z,10.47
2019-03-29T18:06:41.618Z,10.67
2019-03-29T18:09:30.355Z,10.53
2019-03-29T18:12:19.140Z,11.60
2019-03-29T18:15:09.219Z,10.87
2019-03-29T18:17:57.947Z,10.73
2019-03-29T18:20:46.787Z,11.77
2019-03-29T18:23:35.435Z,11.00
2019-03-29T18:26:24.582Z,11.17
2019-03-29T18:29:13.527Z,11.47
2019-03-29T18:32:02.551Z,11.80
2019-03-29T18:34:51.512Z,11.87
2019-03-29T18:37:40.215Z,11.90
2019-03-29T18:40:29.173Z,12.83
2019-03-29T18:43:18.001Z,12.00
2019-03-29T18:46:06.069Z,12.53
2019-03-29T18:48:54.982Z,12.47
2019-03-29T18:51:43.339Z,12.07
2019-03-29T18:54:32.251Z,12.50
2019-03-29T18:57:20.315Z,12.57
2019-03-29T19:00:09.352Z,14.60
2019-03-29T19:02:58.670Z,14.63
2019-03-29T19:05:46.711Z,14.03
2019-03-29T19:08:35.366Z,14.10
2019-03-29T19:11:24.133Z,14.67
2019-03-29T19:14:13.291Z,14.83
2019-03-29T19:17:01.765Z,14.93
2019-03-29T19:19:50.751Z,15.60
2019-03-29T19:22:40.020Z,16.30
2019-03-29T19:25:29.258Z,15.07
2019-03-29T19:28:18.526Z,15.83
2019-03-29T19:31:07.275Z,15.37
2019-03-29T19:33:56.787Z,16.30
2019-03-29T19:36:45.557Z,14.83
2019-03-29T19:39:34.469Z,15.60
2019-03-29T19:42:22.875Z,15.23
2019-03-29T19:45:12.364Z,16.70
2019-03-29T19:48:01.135Z,14.70
2019-03-29T19:50:49.740Z,15.23
2019-03-29T19:53:38.359Z,13.53
2019-03-29T19:56:27.531Z,15.37
2019-03-29T19:59:16.146Z,14.90
2019-03-29T20:02:05.051Z,15.80
2019-03-29T20:04:54.537Z,16.80
2019-03-29T20:07:43.211Z,16.53
2019-03-29T20:10:32.230Z,16.87
2019-03-29T20:13:21.504Z,17.07
2019-03-29T20:16:10.624Z,16.30
2019-03-29T20:18:59.734Z,16.73
2019-03-29T20:21:48.179Z,15.90
2019-03-29T20:24:37.103Z,15.57
2019-03-29T20:27:25.814Z,14.83
2019-03-29T20:30:14.702Z,16.87
2019-03-29T20:33:03.774Z,18.73
2019-03-29T20:35:52.558Z,20.70
2019-03-29T20:38:41.251Z,19.97
2019-03-29T20:41:30.359Z,18.03
2019-03-29T20:44:19.148Z,16.73
2019-03-29T20:47:07.845Z,15.27
2019-03-29T20:49:56.875Z,18.80
2019-03-29T20:52:45.885Z,18.60
2019-03-29T20:55:34.834Z,21.23
2019-03-29T20:58:22.927Z,20.23
2019-03-29T21:01:11.472Z,19.97
2019-03-29T21:04:00.102Z,21.00
2019-03-29T21:06:48.907Z,20.77
2019-03-29T21:09:38.209Z,20.27
2019-03-29T21:12:26.587Z,18.83
2019-03-29T21:15:15.424Z,16.10
2019-03-29T21:18:04.125Z,15.93
2019-03-29T21:20:53.187Z,16.80
2019-03-29T21:23:41.940Z,17.17
2019-03-29T21:26:30.968Z,17.77
2019-03-29T21:29:19.971Z,15.87
2019-03-29T21:32:09.102Z,18.00
2019-03-29T21:34:58.579Z,17.37
2019-03-29T21:37:47.228Z,18.67
2019-03-29T21:40:36.094Z,21.37
2019-03-29T21:43:25.345Z,20.97
2019-03-29T21:46:14.215Z,24.33
2019-03-29T21:49:03.609Z,21.50
2019-03-29T21:51:52.551Z,25.40
2019-03-29T21:54:41.673Z,24.87
2019-03-29T21:57:30.097Z,24.03
2019-03-29T22:00:19.191Z,22.33
2019-03-29T22:03:08.326Z,21.37
2019-03-29T22:05:57.599Z,23.13
2019-03-29T22:08:46.513Z,24.67
2019-03-29T22:11:35.148Z,24.97
2019-03-29T22:14:23.502Z,25.67
2019-03-29T22:17:11.997Z,26.60
2019-03-29T22:20:00.727Z,24.73
2019-03-29T22:22:49.456Z,25.23
2019-03-29T22:25:38.544Z,23.47
2019-03-29T22:28:26.901Z,25.77
2019-03-29T22:31:15.809Z,23.40
2019-03-29T22:34:04.486Z,20.90
2019-03-29T22:36:53.372Z,21.67
2019-03-29T22:39:42.124Z,21.30
2019-03-29T22:42:30.624Z,19.23
2019-03-29T22:45:18.940Z,19.70
2019-03-29T22:48:07.200Z,21.23
2019-03-29T22:50:56.003Z,20.37
2019-03-29T22:53:44.831Z,21.23
2019-03-29T22:56:33.523Z,19.70
2019-03-29T22:59:22.116Z,20.73
2019-03-29T23:02:11.091Z,21.10
2019-03-29T23:04:59.543Z,22.13
2019-03-29T23:07:48.027Z,22.10
2019-03-29T23:10:37.234Z,21.60
2019-03-29T23:13:25.459Z,22.20
2019-03-29T23:16:14.408Z,19.13
2019-03-29T23:19:06.638Z,18.73
2019-03-29T23:21:52.764Z,24.03
2019-03-29T23:24:41.728Z,21.17
2019-03-29T23:27:30.835Z,22.50
2019-03-29T23:30:20.211Z,22.13
2019-03-29T23:33:08.844Z,21.67
2019-03-29T23:35:57.939Z,22.43
2019-03-29T23:38:46.393Z,21.57
2019-03-29T23:41:34.763Z,20.83
2019-03-29T23:44:23.403Z,20.60
2019-03-29T23:47:12.586Z,21.60
2019-03-29T23:50:00.696Z,20.83
2019-03-29T23:52:50.011Z,21.03
2019-03-29T23:55:38.564Z,21.60
2019-03-29T23:58:27.496Z,20.60
